createdAt,value
2024-02-06T00:02:55.232Z,17.44
2024-02-06T00:06:56.865Z,17.83
2024-02-06T00:10:58.764Z,17.98
2024-02-06T00:15:00.280Z,17.69
2024-02-06T00:19:02.997Z,17.91
2024-02-06T00:23:04.665Z,18.26
2024-02-06T00:27:06.122Z,18.21
2024-02-06T00:31:07.705Z,18.23
2024-02-06T00:35:09.547Z,17.92
2024-02-06T00:39:11.125Z,17.95
2024-02-06T00:43:13.225Z,18.04
2024-02-06T00:47:16.144Z,17.60
2024-02-06T00:51:17.706Z,18.23
2024-02-06T00:55:19.842Z,18.06
2024-02-06T00:59:23.067Z,18.34
2024-02-06T01:03:24.973Z,18.10
2024-02-06T01:07:27.447Z,18.38
2024-02-06T01:11:32.959Z,17.97
2024-02-06T01:15:34.917Z,17.97
2024-02-06T01:19:36.648Z,17.83
2024-02-06T01:23:38.558Z,18.26
2024-02-06T01:27:40.149Z,17.91
2024-02-06T01:31:42.869Z,17.91
2024-02-06T01:35:44.289Z,17.92
2024-02-06T01:39:46.934Z,17.74
2024-02-06T01:43:48.386Z,18.06
2024-02-06T01:47:50.021Z,18.33
2024-02-06T01:51:52.376Z,17.93
2024-02-06T01:55:54.413Z,18.47
2024-02-06T01:59:56.301Z,17.91
2024-02-06T02:03:58.672Z,18.25
2024-02-06T02:08:00.703Z,18.19
2024-02-06T02:12:02.470Z,17.75
2024-02-06T02:16:05.475Z,18.25
2024-02-06T02:20:08.009Z,17.95
2024-02-06T02:24:09.625Z,18.55
2024-02-06T02:28:11.546Z,18.16
2024-02-06T02:32:14.733Z,18.07
2024-02-06T02:36:17.049Z,18.38
2024-02-06T02:40:19.061Z,18.56
2024-02-06T02:44:20.857Z,18.46
2024-02-06T02:48:22.550Z,18.39
2024-02-06T02:52:24.503Z,18.23
2024-02-06T02:56:26.557Z,18.74
2024-02-06T03:00:28.276Z,18.53
2024-02-06T03:04:30.290Z,18.23
2024-02-06T03:08:31.933Z,18.15
2024-02-06T03:12:34.725Z,18.45
2024-02-06T03:16:36.468Z,18.59
2024-02-06T03:20:38.070Z,18.53
2024-02-06T03:24:40.061Z,18.66
2024-02-06T03:28:41.598Z,18.82
2024-02-06T03:32:44.079Z,18.26
2024-02-06T03:36:45.825Z,18.70
2024-02-06T03:40:50.032Z,18.62
2024-02-06T03:44:51.494Z,18.74
2024-02-06T03:48:55.237Z,18.67
2024-02-06T03:52:57.351Z,18.49
2024-02-06T03:56:58.887Z,18.51
2024-02-06T04:01:00.956Z,18.80
2024-02-06T04:05:07.082Z,18.84
2024-02-06T04:09:10.811Z,18.48
2024-02-06T04:13:12.538Z,18.67
2024-02-06T04:17:14.210Z,18.98
2024-02-06T04:21:15.857Z,18.41
2024-02-06T04:25:18.346Z,18.62
2024-02-06T04:29:20.525Z,18.68
2024-02-06T04:33:23.927Z,18.56
2024-02-06T04:37:25.861Z,18.58
2024-02-06T04:41:27.464Z,18.24
2024-02-06T04:45:29.204Z,18.65
2024-02-06T04:49:31.024Z,18.60
2024-02-06T04:53:33.079Z,18.71
2024-02-06T04:57:35.289Z,18.52
2024-02-06T05:01:37.996Z,18.28
2024-02-06T05:05:39.608Z,18.65
2024-02-06T05:09:41.322Z,18.51
2024-02-06T05:13:44.019Z,18.77
2024-02-06T05:17:46.145Z,18.90
2024-02-06T05:21:48.424Z,18.79
2024-02-06T05:25:49.866Z,18.52
2024-02-06T05:29:51.827Z,18.64
2024-02-06T05:33:53.328Z,18.49
2024-02-06T05:37:54.945Z,18.38
2024-02-06T05:41:56.786Z,18.38
2024-02-06T05:45:58.317Z,18.72
2024-02-06T05:50:00.620Z,18.78
2024-02-06T05:54:02.356Z,18.90
2024-02-06T05:58:05.121Z,18.39
2024-02-06T06:02:06.950Z,18.96
2024-02-06T06:06:10.285Z,18.65
2024-02-06T06:10:16.375Z,18.13
2024-02-06T06:14:19.133Z,18.49
2024-02-06T06:18:20.827Z,18.40
2024-02-06T06:22:22.643Z,18.66
2024-02-06T06:26:24.109Z,18.13
2024-02-06T06:30:27.062Z,18.79
2024-02-06T06:34:31.338Z,18.28
2024-02-06T06:38:33.076Z,18.63
2024-02-06T06:42:36.441Z,18.84
2024-02-06T06:46:38.733Z,18.78
2024-02-06T06:50:40.527Z,18.94
2024-02-06T06:54:45.096Z,18.56
2024-02-06T06:58:47.306Z,18.50
2024-02-06T07:02:49.117Z,18.67
2024-02-06T07:06:50.531Z,18.23
2024-02-06T07:10:52.574Z,18.90
2024-02-06T07:14:54.319Z,19.00
2024-02-06T07:18:55.967Z,18.98
2024-02-06T07:22:57.632Z,18.69
2024-02-06T07:27:02.058Z,18.80
2024-02-06T07:31:04.040Z,18.30
2024-02-06T07:35:05.808Z,18.78
2024-02-06T07:39:09.400Z,18.66
2024-02-06T07:43:11.506Z,18.67
2024-02-06T07:47:12.950Z,19.10
2024-02-06T07:51:15.307Z,18.73
2024-02-06T07:55:17.440Z,19.04
2024-02-06T07:59:18.968Z,19.04
2024-02-06T08:03:20.418Z,19.05
2024-02-06T08:07:22.062Z,18.69
2024-02-06T08:11:26.562Z,18.83
2024-02-06T08:15:28.633Z,18.60
2024-02-06T08:19:32.154Z,18.97
2024-02-06T08:23:34.185Z,19.17
2024-02-06T08:27:36.171Z,19.02
2024-02-06T08:31:37.958Z,18.97
2024-02-06T08:35:40.378Z,18.90
2024-02-06T08:39:46.484Z,18.85
2024-02-06T08:43:53.189Z,19.05
2024-02-06T08:47:57.965Z,19.29
2024-02-06T08:51:59.921Z,18.86
2024-02-06T08:56:03.799Z,18.78
2024-02-06T09:00:09.367Z,19.18
2024-02-06T09:04:12.496Z,19.25
2024-02-06T09:08:15.853Z,19.18
2024-02-06T09:12:24.091Z,19.52
2024-02-06T09:16:27.192Z,19.59
2024-02-06T09:20:29.646Z,19.59
2024-02-06T09:24:33.317Z,19.63
2024-02-06T09:28:35.290Z,19.38
2024-02-06T09:32:37.041Z,19.43
2024-02-06T09:36:39.886Z,19.44
2024-02-06T09:40:44.278Z,19.28
2024-02-06T09:44:46.292Z,19.02
2024-02-06T09:48:47.848Z,19.13
2024-02-06T09:52:51.499Z,19.40
2024-02-06T09:56:54.674Z,19.47
2024-02-06T10:00:57.594Z,19.48
2024-02-06T10:05:01.515Z,18.79
2024-02-06T10:09:06.485Z,19.19
2024-02-06T10:13:08.513Z,19.53
2024-02-06T10:17:12.576Z,19.54
2024-02-06T10:21:20.922Z,19.17
2024-02-06T10:25:22.611Z,19.05
2024-02-06T10:29:24.781Z,19.76
2024-02-06T10:33:31.034Z,19.65
2024-02-06T10:37:37.531Z,19.29
2024-02-06T10:42:00.287Z,19.56
2024-02-06T10:46:03.276Z,19.45
2024-02-06T10:50:06.593Z,19.38
2024-02-06T10:54:11.696Z,19.64
2024-02-06T10:58:19.256Z,19.30
2024-02-06T11:02:30.687Z,19.12
2024-02-06T11:06:54.009Z,19.49
2024-02-06T11:10:57.598Z,19.77
2024-02-06T11:15:03.232Z,20.20
2024-02-06T11:19:23.515Z,19.84
2024-02-06T11:23:26.578Z,19.69
2024-02-06T11:27:33.060Z,19.95
2024-02-06T11:31:39.042Z,20.38
2024-02-06T11:35:42.251Z,20.60
2024-02-06T11:39:44.759Z,20.47
2024-02-06T11:43:48.834Z,20.32
2024-02-06T11:47:58.344Z,20.07
2024-02-06T11:52:00.013Z,19.95
2024-02-06T11:56:04.862Z,20.16
2024-02-06T12:00:11.468Z,19.68
2024-02-06T12:04:22.020Z,20.02
2024-02-06T12:08:27.599Z,19.57
2024-02-06T12:12:30.853Z,20.23
2024-02-06T12:16:35.484Z,20.37
2024-02-06T12:20:37.381Z,20.15
2024-02-06T12:24:38.926Z,20.54
2024-02-06T12:33:02.506Z,20.37
2024-02-06T12:37:07.379Z,20.14
2024-02-06T12:41:10.545Z,20.20
2024-02-06T12:45:13.516Z,20.63
2024-02-06T12:49:15.842Z,21.22
2024-02-06T12:53:27.321Z,20.65
2024-02-06T12:57:32.222Z,21.09
2024-02-06T13:01:33.812Z,20.44
2024-02-06T13:05:36.725Z,20.67
2024-02-06T13:09:49.461Z,20.59
2024-02-06T13:14:07.831Z,20.97
2024-02-06T13:18:09.907Z,21.03
2024-02-06T13:22:11.726Z,20.35
2024-02-06T13:26:13.836Z,20.28
2024-02-06T13:30:17.892Z,20.79
2024-02-06T13:34:19.476Z,20.74
2024-02-06T13:38:21.268Z,20.76
2024-02-06T13:42:27.269Z,20.18
2024-02-06T13:46:29.697Z,20.13
2024-02-06T13:50:33.111Z,20.38
2024-02-06T13:54:37.902Z,20.52
2024-02-06T13:58:44.114Z,20.36
2024-02-06T14:02:47.801Z,20.00
2024-02-06T14:06:49.719Z,19.58
2024-02-06T14:10:56.986Z,20.21
2024-02-06T14:14:58.807Z,19.95
2024-02-06T14:19:05.933Z,20.11
2024-02-06T14:23:08.433Z,20.19
2024-02-06T14:27:09.943Z,20.20
2024-02-06T14:31:12.779Z,19.72
2024-02-06T14:35:14.852Z,19.94
2024-02-06T14:39:16.648Z,19.85
2024-02-06T14:43:19.818Z,20.32
2024-02-06T14:47:21.861Z,19.85
2024-02-06T14:51:27.301Z,20.31
2024-02-06T14:55:30.909Z,19.88
2024-02-06T14:59:36.984Z,20.29
2024-02-06T15:03:41.578Z,20.34
2024-02-06T15:07:44.937Z,20.25
2024-02-06T15:11:47.070Z,19.87
2024-02-06T15:15:48.559Z,20.48
2024-02-06T15:19:51.481Z,20.17
2024-02-06T15:23:53.701Z,19.80
2024-02-06T15:27:56.121Z,19.80
2024-02-06T15:31:58.234Z,20.21
2024-02-06T15:36:01.432Z,19.91
2024-02-06T15:40:03.584Z,20.30
2024-02-06T15:44:06.262Z,20.03
2024-02-06T15:48:07.964Z,20.00
2024-02-06T15:52:09.635Z,19.86
2024-02-06T15:56:13.128Z,19.82
2024-02-06T16:00:16.807Z,20.12
2024-02-06T16:04:18.576Z,20.41
2024-02-06T16:08:21.635Z,19.97
2024-02-06T16:12:26.229Z,19.97
2024-02-06T16:16:34.801Z,19.86
2024-02-06T16:20:36.890Z,19.59
2024-02-06T16:24:38.421Z,19.70
2024-02-06T16:28:39.929Z,19.73
2024-02-06T16:32:41.442Z,19.25
2024-02-06T16:36:44.152Z,19.65
2024-02-06T16:40:45.668Z,19.32
2024-02-06T16:44:47.362Z,18.97
2024-02-06T16:48:48.943Z,19.44
2024-02-06T16:52:55.572Z,18.62
2024-02-06T16:56:58.208Z,19.27
2024-02-06T17:01:00.421Z,18.66
2024-02-06T17:05:02.997Z,19.08
2024-02-06T17:09:05.208Z,18.95
2024-02-06T17:13:06.872Z,19.22
2024-02-06T17:17:11.506Z,19.41
2024-02-06T17:21:14.056Z,19.26
2024-02-06T17:25:17.805Z,19.67
2024-02-06T17:29:19.381Z,19.22
2024-02-06T17:33:21.110Z,19.54
2024-02-06T17:37:22.707Z,19.18
2024-02-06T17:41:24.556Z,19.04
2024-02-06T17:45:26.942Z,19.51
2024-02-06T17:49:31.549Z,19.64
2024-02-06T17:53:33.321Z,19.88
2024-02-06T17:57:41.537Z,19.51
2024-02-06T18:01:46.774Z,19.41
2024-02-06T18:05:48.546Z,19.65
2024-02-06T18:09:50.346Z,19.36
2024-02-06T18:13:51.944Z,19.12
2024-02-06T18:17:53.837Z,19.30
2024-02-06T18:21:55.606Z,18.88
2024-02-06T18:26:00.761Z,19.26
2024-02-06T18:30:02.767Z,19.57
2024-02-06T18:34:05.075Z,19.64
2024-02-06T18:38:06.971Z,18.99
2024-02-06T18:42:16.345Z,19.20
2024-02-06T18:46:18.998Z,18.74
2024-02-06T18:50:24.039Z,19.11
2024-02-06T18:54:26.660Z,19.48
2024-02-06T19:02:55.347Z,19.48
2024-02-06T19:06:58.348Z,19.26
2024-02-06T19:11:00.243Z,19.04
2024-02-06T19:15:04.290Z,19.26
2024-02-06T19:19:08.472Z,19.39
2024-02-06T19:23:12.376Z,19.20
2024-02-06T19:27:14.347Z,19.78
2024-02-06T19:31:16.583Z,19.27
2024-02-06T19:35:18.462Z,19.30
2024-02-06T19:39:25.507Z,19.51
2024-02-06T19:43:27.189Z,19.84
2024-02-06T19:47:28.629Z,19.49
2024-02-06T19:51:30.609Z,19.38
2024-02-06T19:55:33.122Z,19.38
2024-02-06T19:59:35.147Z,19.76
2024-02-06T20:03:36.914Z,19.37
2024-02-06T20:07:38.469Z,19.34
2024-02-06T20:11:43.784Z,19.39
2024-02-06T20:15:47.121Z,19.22
2024-02-06T20:19:49.646Z,19.29
2024-02-06T20:23:51.734Z,19.70
2024-02-06T20:27:53.216Z,19.41
2024-02-06T20:31:58.192Z,19.49
2024-02-06T20:36:05.663Z,20.17
2024-02-06T20:40:09.811Z,20.29
2024-02-06T20:44:11.613Z,19.97
2024-02-06T20:48:13.463Z,19.80
2024-02-06T20:52:15.438Z,19.70
2024-02-06T20:56:17.233Z,19.83
2024-02-06T21:00:19.610Z,19.67
2024-02-06T21:04:25.252Z,19.59
2024-02-06T21:08:27.323Z,19.29
2024-02-06T21:12:28.776Z,19.57
2024-02-06T21:16:30.590Z,19.67
2024-02-06T21:20:32.511Z,19.45
2024-02-06T21:24:34.238Z,19.80
2024-02-06T21:28:35.850Z,19.82
2024-02-06T21:32:39.635Z,19.86
2024-02-06T21:36:43.585Z,19.97
2024-02-06T21:40:45.194Z,20.27
2024-02-06T21:44:48.013Z,19.81
2024-02-06T21:48:49.473Z,20.00
2024-02-06T21:52:50.999Z,19.88
2024-02-06T21:56:52.671Z,19.69
2024-02-06T22:00:55.495Z,19.96
2024-02-06T22:04:57.222Z,19.66
2024-02-06T22:08:58.839Z,19.93
2024-02-06T22:13:00.491Z,19.99
2024-02-06T22:17:05.269Z,20.11
2024-02-06T22:21:06.950Z,19.98
2024-02-06T22:25:08.980Z,20.06
2024-02-06T22:29:10.788Z,19.92
2024-02-06T22:33:12.595Z,20.13
2024-02-06T22:37:14.165Z,20.15
2024-02-06T22:41:15.649Z,20.16
2024-02-06T22:45:17.684Z,20.08
2024-02-06T22:49:19.553Z,20.35
2024-02-06T22:53:22.921Z,20.07
2024-02-06T22:57:25.692Z,20.44
2024-02-06T23:01:30.065Z,19.98
2024-02-06T23:05:31.929Z,19.82
2024-02-06T23:09:33.998Z,19.92
2024-02-06T23:13:36.651Z,19.76
2024-02-06T23:17:38.809Z,19.69
2024-02-06T23:21:43.550Z,19.93
2024-02-06T23:25:45.621Z,19.45
2024-02-06T23:29:47.426Z,20.06
2024-02-06T23:33:49.181Z,19.55
2024-02-06T23:37:50.912Z,19.96
2024-02-06T23:41:54.877Z,20.13
2024-02-06T23:45:57.394Z,20.28
2024-02-06T23:50:01.797Z,20.39
2024-02-06T23:54:03.443Z,19.74
2024-02-06T23:58:05.468Z,19.57
